To NAV CANADA Home Page Login to a new session Search on AWWS site Feedback and Comments Disclaimer Vers la page française équivalente Tips FAQ What's new on the site To the Forecasts and Observations / NOTAM section To "File a Flight Plan" website Publications and other links Update of the User's profile FIC Telephone Numbers My Weather Data Folder Route Weather Data Regional Weather Data Local Weather Data To the Forecasts and Observations / NOTAM section
Request Generated 07/26/2016 at 02:35:29 UTC . Weather information available at that time is displayed.

METAR/TAF

HALIFAX/STANFIELD INTL/NS    (show WxCam)

METAR CYHZ 260200Z 13010KT 15SM FEW080 BKN300 19/18 A2986 RMK AC1CI4
SLP112 DENSITY ALT 1000FT=
METAR CYHZ 260100Z 13007KT 15SM FEW060 OVC260 20/18 A2988 RMK SC1CI7
SLP118 DENSITY ALT 1200FT=
METAR CYHZ 260000Z 19005KT 15SM FEW060 SCT150 OVC260 22/17 A2989 RMK
SC2AC1CI5 SLP121 DENSITY ALT 1400FT=

TAF CYHZ 252338Z 2600/2624 21005KT P6SM FEW040 SCT100 BKN260
FM260300 17005KT P6SM SCT050 BKN150 PROB30 2606/2612 1SM BR
BKN005
FM261200 19010KT P6SM -SHRA SCT007 OVC030 TEMPO 2613/2615 4SM
-SHRA BR BKN007 OVC030
FM261500 18010KT 3SM -RA BR BKN005 OVC012
FM261800 18012G22KT P6SM BKN050
FM262300 18010G20KT 6SM -RA -DZ BR OVC007
RMK NXT FCST BY 260300Z=
Your time UTC time
Weather data provided by Environment Canada and NAV CANADA